createdAt,value
2019-03-06T00:02:18.069Z,6.70
2019-03-06T00:04:48.335Z,6.70
2019-03-06T00:07:18.525Z,6.70
2019-03-06T00:09:48.687Z,6.60
2019-03-06T00:12:19.044Z,6.50
2019-03-06T00:14:49.346Z,6.30
2019-03-06T00:17:19.738Z,6.30
2019-03-06T00:19:50.013Z,6.20
2019-03-06T00:22:20.180Z,6.20
2019-03-06T00:24:50.746Z,6.20
2019-03-06T00:27:20.928Z,6.20
2019-03-06T00:29:51.103Z,6.20
2019-03-06T00:32:21.298Z,6.20
2019-03-06T00:34:52.549Z,6.20
2019-03-06T00:37:22.936Z,6.10
2019-03-06T00:39:54.741Z,6.10
2019-03-06T00:42:25.147Z,6.00
2019-03-06T00:44:55.304Z,6.00
2019-03-06T00:47:25.810Z,6.00
2019-03-06T00:49:56.125Z,6.10
2019-03-06T00:52:26.322Z,6.00
2019-03-06T00:54:56.485Z,6.00
2019-03-06T00:57:26.861Z,6.00
2019-03-06T00:59:57.124Z,5.90
2019-03-06T01:02:27.381Z,5.90
2019-03-06T01:04:58.844Z,5.90
2019-03-06T01:07:29.345Z,5.90
2019-03-06T01:09:59.808Z,5.90
2019-03-06T01:12:30.714Z,5.90
2019-03-06T01:15:00.885Z,5.80
2019-03-06T01:17:31.191Z,5.80
2019-03-06T01:20:01.350Z,5.80
2019-03-06T01:22:31.536Z,5.80
2019-03-06T01:25:01.697Z,5.70
2019-03-06T01:27:31.890Z,5.70
2019-03-06T01:30:02.252Z,5.70
2019-03-06T01:32:32.780Z,5.70
2019-03-06T01:35:07.410Z,5.70
2019-03-06T01:37:45.106Z,5.70
2019-03-06T01:40:26.638Z,5.50
2019-03-06T01:42:58.578Z,5.40
2019-03-06T01:45:28.754Z,5.40
2019-03-06T01:47:59.046Z,5.50
2019-03-06T01:50:29.709Z,5.50
2019-03-06T01:53:00.074Z,5.50
2019-03-06T01:55:30.338Z,5.40
2019-03-06T01:58:00.539Z,5.30
2019-03-06T02:00:30.782Z,5.30
2019-03-06T02:03:01.058Z,5.30
2019-03-06T02:05:31.558Z,5.20
2019-03-06T02:08:01.746Z,5.20
2019-03-06T02:10:33.441Z,5.20
2019-03-06T02:13:04.569Z,5.20
2019-03-06T02:15:34.938Z,5.10
2019-03-06T02:18:05.207Z,5.10
2019-03-06T02:20:35.611Z,5.20
2019-03-06T02:23:05.960Z,5.20
2019-03-06T02:25:36.126Z,5.30
2019-03-06T02:28:06.505Z,5.30
2019-03-06T02:30:36.843Z,5.30
2019-03-06T02:33:07.027Z,5.30
2019-03-06T02:35:37.299Z,5.30
2019-03-06T02:38:07.654Z,5.20
2019-03-06T02:40:37.906Z,5.20
2019-03-06T02:43:08.297Z,5.20
2019-03-06T02:45:39.162Z,5.20
2019-03-06T02:48:09.637Z,5.20
2019-03-06T02:50:39.898Z,5.30
2019-03-06T02:53:10.198Z,5.20
2019-03-06T02:55:40.381Z,5.20
2019-03-06T02:58:22.200Z,5.20
2019-03-06T03:00:56.771Z,5.20
2019-03-06T03:03:32.079Z,5.20
2019-03-06T03:06:03.982Z,5.20
2019-03-06T03:08:34.377Z,5.20
2019-03-06T03:11:04.769Z,5.20
2019-03-06T03:13:34.945Z,5.10
2019-03-06T03:16:05.201Z,5.10
2019-03-06T03:18:35.585Z,5.20
2019-03-06T03:21:06.393Z,5.20
2019-03-06T03:23:36.566Z,5.20
2019-03-06T03:26:07.004Z,5.20
2019-03-06T03:28:37.281Z,5.20
2019-03-06T03:31:07.945Z,5.10
2019-03-06T03:33:38.333Z,5.20
2019-03-06T03:36:08.595Z,5.20
2019-03-06T03:38:38.978Z,5.20
2019-03-06T03:41:09.299Z,5.10
2019-03-06T03:43:39.887Z,5.10
2019-03-06T03:46:10.037Z,5.20
2019-03-06T03:48:40.328Z,5.20
2019-03-06T03:51:10.486Z,5.30
2019-03-06T03:53:40.784Z,5.20
2019-03-06T03:56:10.959Z,5.10
2019-03-06T03:58:41.419Z,5.10
2019-03-06T04:01:11.654Z,5.10
2019-03-06T04:03:41.849Z,5.10
2019-03-06T04:06:12.069Z,5.00
2019-03-06T04:08:42.360Z,5.00
2019-03-06T04:11:12.626Z,5.00
2019-03-06T04:13:42.909Z,5.00
2019-03-06T04:16:13.166Z,5.00
2019-03-06T04:18:43.341Z,5.10
2019-03-06T04:21:13.707Z,5.10
2019-03-06T04:23:43.889Z,5.10
2019-03-06T04:26:14.248Z,5.10
2019-03-06T04:28:44.566Z,5.10
2019-03-06T04:31:15.128Z,5.10
2019-03-06T04:33:45.310Z,5.00
2019-03-06T04:36:15.570Z,5.00
2019-03-06T04:38:45.763Z,5.00
2019-03-06T04:41:16.047Z,5.00
2019-03-06T04:43:46.212Z,4.90
2019-03-06T04:46:16.602Z,5.00
2019-03-06T04:48:46.735Z,5.00
2019-03-06T04:51:17.121Z,5.00
2019-03-06T04:53:47.970Z,5.00
2019-03-06T04:56:18.255Z,5.00
2019-03-06T04:58:48.718Z,5.00
2019-03-06T05:01:19.006Z,5.00
2019-03-06T05:03:49.165Z,5.00
2019-03-06T05:06:19.642Z,5.00
2019-03-06T05:08:49.906Z,4.90
2019-03-06T05:11:20.080Z,5.00
2019-03-06T05:13:50.245Z,4.90
2019-03-06T05:16:22.172Z,4.90
2019-03-06T05:18:53.960Z,4.80
2019-03-06T05:21:24.245Z,4.80
2019-03-06T05:23:54.508Z,4.80
2019-03-06T05:26:24.894Z,4.80
2019-03-06T05:28:55.316Z,4.90
2019-03-06T05:31:25.646Z,4.90
2019-03-06T05:33:55.805Z,5.00
2019-03-06T05:36:44.094Z,4.90
2019-03-06T05:39:14.456Z,4.80
2019-03-06T05:41:44.842Z,4.70
2019-03-06T05:44:14.996Z,4.60
2019-03-06T05:46:45.681Z,4.60
2019-03-06T05:49:15.941Z,4.40
2019-03-06T05:51:46.320Z,4.40
2019-03-06T05:54:16.586Z,4.40
2019-03-06T05:56:48.394Z,4.40
2019-03-06T05:59:18.932Z,4.40
2019-03-06T06:01:49.385Z,4.30
2019-03-06T06:04:19.759Z,4.20
2019-03-06T06:06:50.146Z,4.20
2019-03-06T06:09:20.993Z,4.30
2019-03-06T06:11:51.521Z,4.30
2019-03-06T06:14:22.038Z,4.30
2019-03-06T06:16:52.222Z,4.20
2019-03-06T06:19:22.481Z,4.00
2019-03-06T06:22:11.118Z,4.00
2019-03-06T06:24:43.103Z,4.10
2019-03-06T06:27:13.600Z,4.00
2019-03-06T06:29:43.986Z,4.00
2019-03-06T06:32:14.172Z,4.00
2019-03-06T06:34:44.349Z,4.20
2019-03-06T06:37:14.635Z,4.30
2019-03-06T06:39:44.910Z,4.30
2019-03-06T06:42:15.387Z,4.50
2019-03-06T06:44:45.695Z,4.60
2019-03-06T06:47:16.081Z,4.70
2019-03-06T06:49:46.367Z,4.80
2019-03-06T06:52:22.822Z,4.80
2019-03-06T06:55:20.211Z,4.80
2019-03-06T06:58:17.528Z,4.80
2019-03-06T07:01:01.405Z,4.80
2019-03-06T07:03:48.640Z,4.80
2019-03-06T07:06:29.334Z,4.90
2019-03-06T07:09:01.256Z,5.00
2019-03-06T07:11:33.063Z,5.00
2019-03-06T07:14:10.370Z,5.00
2019-03-06T07:16:42.169Z,5.00
2019-03-06T07:19:16.666Z,5.10
2019-03-06T07:21:54.387Z,5.30
2019-03-06T07:24:42.649Z,5.30
2019-03-06T07:27:29.823Z,5.20
2019-03-06T07:30:07.904Z,5.30
2019-03-06T07:32:54.806Z,5.40
2019-03-06T07:36:01.260Z,5.30
2019-03-06T07:38:31.474Z,5.20
2019-03-06T07:41:16.383Z,5.10
2019-03-06T07:43:51.199Z,5.30
2019-03-06T07:46:26.064Z,5.50
2019-03-06T07:48:57.894Z,5.50
2019-03-06T07:51:41.875Z,5.70
2019-03-06T07:54:28.803Z,5.80
2019-03-06T07:57:01.196Z,6.00
2019-03-06T07:59:31.478Z,6.10
2019-03-06T08:02:13.758Z,6.30
2019-03-06T08:04:54.492Z,6.30
2019-03-06T08:07:24.660Z,6.30
2019-03-06T08:09:54.859Z,6.40
2019-03-06T08:12:26.767Z,6.40
2019-03-06T08:15:16.645Z,6.40
2019-03-06T08:17:48.490Z,6.50
2019-03-06T08:20:20.394Z,6.60
2019-03-06T08:23:04.223Z,6.60
2019-03-06T08:25:36.450Z,6.60
2019-03-06T08:28:06.685Z,6.70
2019-03-06T08:30:43.234Z,6.80
2019-03-06T08:33:18.254Z,6.90
2019-03-06T08:35:45.166Z,7.00
2019-03-06T08:38:15.442Z,7.20
2019-03-06T08:40:45.715Z,7.20
2019-03-06T08:43:16.068Z,7.40
2019-03-06T08:46:06.544Z,7.50
2019-03-06T08:48:38.374Z,7.70
2019-03-06T08:51:16.312Z,7.80
2019-03-06T08:53:48.432Z,7.90
2019-03-06T08:56:23.296Z,8.00
2019-03-06T08:59:11.951Z,8.00
2019-03-06T09:02:01.207Z,8.10
2019-03-06T09:04:43.541Z,8.20
2019-03-06T09:07:18.652Z,8.20
2019-03-06T09:09:56.345Z,8.30
2019-03-06T09:12:44.683Z,8.30
2019-03-06T09:15:17.155Z,8.30
2019-03-06T09:17:52.201Z,8.30
2019-03-06T09:20:36.131Z,8.40
2019-03-06T09:23:12.531Z,8.40
2019-03-06T09:25:45.233Z,8.50
2019-03-06T09:28:33.636Z,8.50
2019-03-06T09:31:08.859Z,8.50
2019-03-06T09:33:43.733Z,8.60
2019-03-06T09:36:15.565Z,8.60
2019-03-06T09:38:50.652Z,8.70
2019-03-06T09:41:38.835Z,8.70
2019-03-06T09:44:10.667Z,8.80
2019-03-06T09:46:42.782Z,9.00
2019-03-06T09:49:23.973Z,9.00
2019-03-06T09:51:55.777Z,9.00
2019-03-06T09:54:40.000Z,9.00
2019-03-06T09:57:12.004Z,9.10
2019-03-06T09:59:52.970Z,9.10
2019-03-06T10:02:28.081Z,9.30
2019-03-06T10:04:59.906Z,9.20
2019-03-06T10:07:43.721Z,9.20
2019-03-06T10:10:15.621Z,9.30
2019-03-06T10:12:47.877Z,9.40
2019-03-06T10:15:29.022Z,9.40
2019-03-06T10:18:03.626Z,9.40
2019-03-06T10:20:33.890Z,9.40
2019-03-06T10:23:04.228Z,9.50
2019-03-06T10:25:34.404Z,9.60
2019-03-06T10:28:06.623Z,9.60
2019-03-06T10:30:37.103Z,9.60
2019-03-06T10:33:07.365Z,9.60
2019-03-06T10:35:37.726Z,9.70
2019-03-06T10:38:08.320Z,9.70
2019-03-06T10:40:39.878Z,9.70
2019-03-06T10:43:10.144Z,9.70
2019-03-06T10:45:41.723Z,9.80
2019-03-06T10:48:12.402Z,9.80
2019-03-06T10:50:42.851Z,9.90
2019-03-06T10:53:13.113Z,9.90
2019-03-06T10:55:43.307Z,10.10
2019-03-06T10:58:13.578Z,10.20
2019-03-06T11:00:54.948Z,10.20
2019-03-06T11:03:29.557Z,10.30
2019-03-06T11:05:59.830Z,10.40
2019-03-06T11:08:30.061Z,10.50
2019-03-06T11:11:00.423Z,10.60
2019-03-06T11:13:30.661Z,10.60
2019-03-06T11:16:00.951Z,10.70
2019-03-06T11:18:31.124Z,10.80
2019-03-06T11:21:01.776Z,10.90
2019-03-06T11:23:32.107Z,10.90
2019-03-06T11:26:03.065Z,11.00
2019-03-06T11:28:33.393Z,11.10
2019-03-06T11:31:04.633Z,11.10
2019-03-06T11:33:36.837Z,11.10
2019-03-06T11:36:07.705Z,11.10
2019-03-06T11:38:38.047Z,11.20
2019-03-06T11:41:08.586Z,11.20
2019-03-06T11:43:38.762Z,11.20
2019-03-06T11:46:09.597Z,11.30
2019-03-06T11:48:40.002Z,11.30
2019-03-06T11:51:10.377Z,11.40
2019-03-06T11:53:40.644Z,11.40
2019-03-06T11:56:11.084Z,11.40
2019-03-06T11:58:41.584Z,11.50
2019-03-06T12:01:17.092Z,11.60
2019-03-06T12:03:47.801Z,11.60
2019-03-06T12:06:18.356Z,11.70
2019-03-06T12:08:48.900Z,11.80
2019-03-06T12:11:19.297Z,11.80
2019-03-06T12:13:49.777Z,11.80
2019-03-06T12:16:21.640Z,11.80
2019-03-06T12:18:52.045Z,11.80
2019-03-06T12:21:22.441Z,11.80
2019-03-06T12:23:52.610Z,11.80
2019-03-06T12:26:23.240Z,11.80
2019-03-06T12:28:53.412Z,11.80
2019-03-06T12:31:23.610Z,11.80
2019-03-06T12:33:54.004Z,11.80
2019-03-06T12:36:24.344Z,11.90
2019-03-06T12:38:54.609Z,11.90
2019-03-06T12:41:24.798Z,11.90
2019-03-06T12:43:55.092Z,12.00
2019-03-06T12:46:25.592Z,12.10
2019-03-06T12:48:58.323Z,12.00
2019-03-06T12:51:28.881Z,12.00
2019-03-06T12:53:59.068Z,12.10
2019-03-06T12:56:29.789Z,12.10
2019-03-06T12:59:00.025Z,12.10
2019-03-06T13:01:30.193Z,12.10
2019-03-06T13:04:00.383Z,12.10
2019-03-06T13:06:30.552Z,12.00
2019-03-06T13:09:01.408Z,12.10
2019-03-06T13:11:31.744Z,12.20
2019-03-06T13:14:02.186Z,12.30
2019-03-06T13:16:32.458Z,12.30
2019-03-06T13:19:02.858Z,12.40
2019-03-06T13:21:33.235Z,12.50
2019-03-06T13:24:03.937Z,12.60
2019-03-06T13:26:34.206Z,12.60
2019-03-06T13:29:04.477Z,12.50
2019-03-06T13:31:34.912Z,12.50
2019-03-06T13:34:06.862Z,12.50
2019-03-06T13:36:37.186Z,12.40
2019-03-06T13:39:08.227Z,12.40
2019-03-06T13:41:38.499Z,12.40
2019-03-06T13:44:08.874Z,12.50
2019-03-06T13:46:39.141Z,12.60
2019-03-06T13:49:09.454Z,12.60
2019-03-06T13:51:39.824Z,12.60
2019-03-06T13:54:10.124Z,12.60
2019-03-06T13:56:40.466Z,12.60
2019-03-06T13:59:11.103Z,12.60
2019-03-06T14:01:41.406Z,12.60
2019-03-06T14:04:11.707Z,12.60
2019-03-06T14:06:41.952Z,12.60
2019-03-06T14:09:12.019Z,12.60
2019-03-06T14:11:42.386Z,12.50
2019-03-06T14:14:12.590Z,12.50
2019-03-06T14:16:42.960Z,12.60
2019-03-06T14:19:13.170Z,12.60
2019-03-06T14:21:43.557Z,12.60
2019-03-06T14:24:13.915Z,12.70
2019-03-06T14:26:44.163Z,12.70
2019-03-06T14:29:15.873Z,12.70
2019-03-06T14:31:46.454Z,12.80
2019-03-06T14:34:17.288Z,12.80
2019-03-06T14:36:47.623Z,12.80
2019-03-06T14:39:26.498Z,12.80
2019-03-06T14:41:58.009Z,12.80
2019-03-06T14:44:28.213Z,12.80
2019-03-06T14:46:58.536Z,12.80
2019-03-06T14:49:30.586Z,12.80
2019-03-06T14:52:07.166Z,12.80
2019-03-06T14:54:32.846Z,12.80
2019-03-06T14:57:03.131Z,12.80
2019-03-06T14:59:33.436Z,12.70
2019-03-06T15:02:03.895Z,12.70
2019-03-06T15:04:34.155Z,12.70
2019-03-06T15:07:06.201Z,12.70
2019-03-06T15:09:37.782Z,12.60
2019-03-06T15:12:08.073Z,12.60
2019-03-06T15:14:39.832Z,12.60
2019-03-06T15:17:10.184Z,12.50
2019-03-06T15:19:40.380Z,12.60
2019-03-06T15:22:10.553Z,12.50
2019-03-06T15:24:41.663Z,12.60
2019-03-06T15:27:12.673Z,12.60
2019-03-06T15:29:43.174Z,12.60
2019-03-06T15:32:13.456Z,12.60
2019-03-06T15:34:43.732Z,12.60
2019-03-06T15:37:13.994Z,12.60
2019-03-06T15:39:48.482Z,12.70
2019-03-06T15:42:16.670Z,12.60
2019-03-06T15:44:46.957Z,12.60
2019-03-06T15:47:17.343Z,12.60
2019-03-06T15:49:47.538Z,12.50
2019-03-06T15:52:17.898Z,12.60
2019-03-06T15:54:48.558Z,12.60
2019-03-06T15:57:18.960Z,12.50
2019-03-06T15:59:49.294Z,12.50
2019-03-06T16:02:19.650Z,12.50
2019-03-06T16:04:50.078Z,12.40
2019-03-06T16:07:20.598Z,12.30
2019-03-06T16:09:51.132Z,12.30
2019-03-06T16:12:21.685Z,12.40
2019-03-06T16:14:51.950Z,12.40
2019-03-06T16:17:22.209Z,12.30
2019-03-06T16:19:52.600Z,12.30
2019-03-06T16:22:22.960Z,12.30
2019-03-06T16:24:53.224Z,12.30
2019-03-06T16:27:23.460Z,12.30
2019-03-06T16:29:53.675Z,12.20
2019-03-06T16:32:25.150Z,12.30
2019-03-06T16:34:55.345Z,12.30
2019-03-06T16:37:25.540Z,12.30
2019-03-06T16:39:55.741Z,12.30
2019-03-06T16:42:25.950Z,12.30
2019-03-06T16:44:56.625Z,12.30
2019-03-06T16:47:27.347Z,12.20
2019-03-06T16:49:57.638Z,12.10
2019-03-06T16:52:27.974Z,12.10
2019-03-06T16:54:58.172Z,12.10
2019-03-06T16:57:30.693Z,12.00
2019-03-06T17:00:01.220Z,12.00
2019-03-06T17:02:31.453Z,12.00
2019-03-06T17:05:01.721Z,11.90
2019-03-06T17:07:31.893Z,11.80
2019-03-06T17:10:02.268Z,11.80
2019-03-06T17:12:32.870Z,11.80
2019-03-06T17:15:03.315Z,11.70
2019-03-06T17:17:33.486Z,11.60
2019-03-06T17:20:05.416Z,11.70
2019-03-06T17:22:35.594Z,11.70
2019-03-06T17:25:06.467Z,11.60
2019-03-06T17:27:36.920Z,11.60
2019-03-06T17:30:18.414Z,11.50
2019-03-06T17:32:54.132Z,11.50
2019-03-06T17:35:24.834Z,11.40
2019-03-06T17:37:55.846Z,11.40
2019-03-06T17:40:26.686Z,11.40
2019-03-06T17:42:57.506Z,11.30
2019-03-06T17:45:28.272Z,11.20
2019-03-06T17:47:58.575Z,11.20
2019-03-06T17:50:29.119Z,11.10
2019-03-06T17:52:59.567Z,11.10
2019-03-06T17:55:30.035Z,11.10
2019-03-06T17:58:00.206Z,11.10
2019-03-06T18:00:32.581Z,11.00
2019-03-06T18:03:02.738Z,11.00
2019-03-06T18:05:33.041Z,10.90
2019-03-06T18:08:03.203Z,10.90
2019-03-06T18:10:33.478Z,10.90
2019-03-06T18:13:03.990Z,10.90
2019-03-06T18:15:34.389Z,10.90
2019-03-06T18:18:04.881Z,10.80
2019-03-06T18:20:35.270Z,10.70
2019-03-06T18:23:05.819Z,10.80
2019-03-06T18:25:36.102Z,10.70
2019-03-06T18:28:07.107Z,10.70
2019-03-06T18:30:37.300Z,10.80
2019-03-06T18:33:07.560Z,10.80
2019-03-06T18:35:37.775Z,10.80
2019-03-06T18:38:07.939Z,10.80
2019-03-06T18:40:38.665Z,10.70
2019-03-06T18:43:09.266Z,10.70
2019-03-06T18:45:39.838Z,10.60
2019-03-06T18:48:10.249Z,10.60
2019-03-06T18:50:40.826Z,10.70
2019-03-06T18:53:11.143Z,10.70
2019-03-06T18:55:41.758Z,10.70
2019-03-06T18:58:13.084Z,10.70
2019-03-06T19:00:43.409Z,10.70
2019-03-06T19:03:13.713Z,10.70
2019-03-06T19:05:44.578Z,10.70
2019-03-06T19:08:15.107Z,10.70
2019-03-06T19:10:46.948Z,10.60
2019-03-06T19:13:17.321Z,10.70
2019-03-06T19:15:47.557Z,10.70
2019-03-06T19:18:17.726Z,10.70
2019-03-06T19:20:48.829Z,10.70
2019-03-06T19:23:19.434Z,10.70
2019-03-06T19:25:52.338Z,10.80
2019-03-06T19:28:23.664Z,10.70
2019-03-06T19:30:53.841Z,10.70
2019-03-06T19:33:24.314Z,10.70
2019-03-06T19:35:54.745Z,10.70
2019-03-06T19:38:25.094Z,10.70
2019-03-06T19:40:55.471Z,10.70
2019-03-06T19:43:25.760Z,10.80
2019-03-06T19:45:56.032Z,10.70
2019-03-06T19:48:27.227Z,10.70
2019-03-06T19:50:57.478Z,10.70
2019-03-06T19:53:27.685Z,10.70
2019-03-06T19:55:58.126Z,10.70
2019-03-06T19:58:28.422Z,10.70
2019-03-06T20:00:58.854Z,10.70
2019-03-06T20:03:29.441Z,10.70
2019-03-06T20:05:59.799Z,10.70
2019-03-06T20:08:30.132Z,10.70
2019-03-06T20:11:00.371Z,10.70
2019-03-06T20:13:30.576Z,10.70
2019-03-06T20:16:00.958Z,10.70
2019-03-06T20:18:31.219Z,10.80
2019-03-06T20:21:01.418Z,10.80
2019-03-06T20:23:31.713Z,10.80
2019-03-06T20:26:01.890Z,10.80
2019-03-06T20:28:32.282Z,10.80
2019-03-06T20:31:02.962Z,10.90
2019-03-06T20:33:34.154Z,10.90
2019-03-06T20:36:04.504Z,10.90
2019-03-06T20:38:34.702Z,11.00
2019-03-06T20:41:05.223Z,11.00
2019-03-06T20:43:35.428Z,11.10
2019-03-06T20:46:05.754Z,11.20
2019-03-06T20:48:36.331Z,11.20
2019-03-06T20:51:08.412Z,11.30
2019-03-06T20:53:38.838Z,11.40
2019-03-06T20:56:09.013Z,11.50
2019-03-06T20:58:39.216Z,11.60
2019-03-06T21:01:09.563Z,11.70
2019-03-06T21:03:39.755Z,11.70
2019-03-06T21:06:10.223Z,11.80
2019-03-06T21:08:40.419Z,11.80
2019-03-06T21:11:10.693Z,11.80
2019-03-06T21:13:41.302Z,11.80
2019-03-06T21:16:11.479Z,11.90
2019-03-06T21:18:41.982Z,11.90
2019-03-06T21:21:12.370Z,11.90
2019-03-06T21:23:42.557Z,11.90
2019-03-06T21:26:12.837Z,11.90
2019-03-06T21:28:43.242Z,11.90
2019-03-06T21:31:13.424Z,11.90
2019-03-06T21:33:43.726Z,11.90
2019-03-06T21:36:14.166Z,11.90
2019-03-06T21:38:44.357Z,11.90
2019-03-06T21:41:14.728Z,11.80
2019-03-06T21:43:46.145Z,11.80
2019-03-06T21:46:16.505Z,11.80
2019-03-06T21:48:46.897Z,11.80
2019-03-06T21:51:17.282Z,11.70
2019-03-06T21:53:47.580Z,11.70
2019-03-06T21:56:17.833Z,11.80
2019-03-06T21:58:48.030Z,11.70
2019-03-06T22:01:18.514Z,11.70
2019-03-06T22:03:48.715Z,11.80
2019-03-06T22:06:19.475Z,11.90
2019-03-06T22:08:49.675Z,11.80
2019-03-06T22:11:20.056Z,11.80
2019-03-06T22:13:50.654Z,11.90
2019-03-06T22:16:20.831Z,11.90
2019-03-06T22:18:52.672Z,11.90
2019-03-06T22:21:22.941Z,11.80
2019-03-06T22:23:53.139Z,11.80
2019-03-06T22:26:23.576Z,11.80
2019-03-06T22:28:53.719Z,11.80
2019-03-06T22:31:24.314Z,11.70
2019-03-06T22:33:54.668Z,11.80
2019-03-06T22:36:25.143Z,11.80
2019-03-06T22:38:55.548Z,11.80
2019-03-06T22:41:26.651Z,11.90
2019-03-06T22:43:57.028Z,11.80
2019-03-06T22:46:27.319Z,11.90
2019-03-06T22:48:57.488Z,11.90
2019-03-06T22:51:27.849Z,11.90
2019-03-06T22:53:58.223Z,11.90
2019-03-06T22:56:30.044Z,11.90
2019-03-06T22:59:00.212Z,11.90
2019-03-06T23:01:30.945Z,11.90
2019-03-06T23:04:01.122Z,11.90
2019-03-06T23:06:31.322Z,11.90
2019-03-06T23:09:01.511Z,11.90
2019-03-06T23:11:31.795Z,11.80
2019-03-06T23:14:02.085Z,11.80
2019-03-06T23:16:32.386Z,11.80
2019-03-06T23:19:02.657Z,11.80
2019-03-06T23:21:32.857Z,11.70
2019-03-06T23:24:03.142Z,11.70
2019-03-06T23:26:42.510Z,11.70
2019-03-06T23:29:05.429Z,11.70
2019-03-06T23:31:35.829Z,11.70
2019-03-06T23:34:06.006Z,11.70
2019-03-06T23:36:36.207Z,11.70
2019-03-06T23:39:08.072Z,11.70
2019-03-06T23:41:38.412Z,11.70
2019-03-06T23:44:08.590Z,11.70
2019-03-06T23:46:38.995Z,11.70
2019-03-06T23:49:09.270Z,11.70
2019-03-06T23:51:41.207Z,11.70
2019-03-06T23:54:11.652Z,11.80
2019-03-06T23:56:42.166Z,11.80
2019-03-06T23:59:12.451Z,11.80
